Time;durP1;ratioP1;P1;durP2;ratioP2;P2;SDS_P1;SDS_P2;PMS_P1;PMS_P2;Temp;Humidity;BMP_temperature;BMP_pressure;BME280_temperature;BME280_humidity;BME280_pressure;Samples;Min_cycle;Max_cycle;Signal;HPM_P1;HPM_P2
2023/06/26 00:02:54;;;;;;;;;11.00;9.00;;;;;22.34;89.40;98775.44;6066773;28;96304;-65
2023/06/26 00:06:00;;;;;;;;;13.00;11.25;;;;;22.26;90.20;98783.56;6048754;28;98304;-65
2023/06/26 00:09:04;;;;;;;;;10.60;9.00;;;;;22.18;91.65;98776.03;6049387;28;96687;-65
2023/06/26 00:12:09;;;;;;;;;12.00;10.60;;;;;22.12;92.07;98772.56;6066256;28;96545;-65
2023/06/26 00:15:12;;;;;;;;;11.60;9.60;;;;;22.04;92.80;98775.97;6066432;28;96409;-65
2023/06/26 00:18:15;;;;;;;;;11.00;9.00;;;;;21.93;94.23;98775.31;6066275;28;96766;-65
2023/06/26 00:21:19;;;;;;;;;11.00;10.50;;;;;21.64;94.83;98741.72;6049093;28;96644;-65
2023/06/26 00:24:23;;;;;;;;;9.80;9.00;;;;;21.69;96.75;98782.78;6064770;28;96269;-65
2023/06/26 00:27:28;;;;;;;;;10.00;9.50;;;;;21.57;97.35;98771.44;6066475;28;96397;-65
2023/06/26 00:30:31;;;;;;;;;9.00;8.00;;;;;21.51;97.80;98764.38;6065820;28;96296;-63
2023/06/26 00:33:34;;;;;;;;;6.80;6.00;;;;;21.47;99.21;98772.41;6049306;28;96661;-65
2023/06/26 00:36:38;;;;;;;;;10.50;10.50;;;;;21.39;99.41;98770.31;6065666;28;96468;-65
2023/06/26 00:39:41;;;;;;;;;9.00;8.00;;;;;21.32;99.96;98771.78;6066189;28;96260;-65
2023/06/26 00:42:46;;;;;;;;;13.00;10.40;;;;;21.29;99.35;98778.69;6037255;28;96730;-65
2023/06/26 00:45:50;;;;;;;;;10.40;10.40;;;;;21.25;100.00;98774.09;6068920;28;96505;-65
2023/06/26 00:48:56;;;;;;;;;9.25;8.00;;;;;21.23;99.83;98771.63;6069595;28;96816;-65
2023/06/26 00:51:59;;;;;;;;;11.75;10.75;;;;;21.20;100.00;98771.41;6051607;28;96841;-65
2023/06/26 00:55:03;;;;;;;;;9.25;8.25;;;;;21.18;100.00;98767.03;6043813;28;96676;-65
2023/06/26 00:58:08;;;;;;;;;12.60;10.60;;;;;21.15;100.00;98773.09;6060445;28;96470;-65
2023/06/26 01:01:15;;;;;;;;;10.80;10.00;;;;;21.17;99.25;98770.03;6046336;28;97519;-65
2023/06/26 01:04:19;;;;;;;;;11.75;9.25;;;;;21.20;99.16;98774.16;6046520;28;96030;-65
2023/06/26 01:07:23;;;;;;;;;11.40;10.40;;;;;21.12;99.02;98753.63;6044151;28;96927;-65
2023/06/26 01:10:28;;;;;;;;;12.00;10.75;;;;;21.20;98.60;98768.66;6045646;28;96594;-65
2023/06/26 01:13:35;;;;;;;;;10.00;10.00;;;;;21.13;98.90;98758.00;6043082;28;96832;-64
2023/06/26 01:16:39;;;;;;;;;10.00;10.00;;;;;21.15;98.15;98759.41;6042520;28;96690;-64
2023/06/26 01:19:44;;;;;;;;;12.00;12.00;;;;;21.16;97.25;98755.53;6043515;28;96491;-65
2023/06/26 01:22:57;;;;;;;;;12.40;11.40;;;;;21.27;96.45;98758.13;6058223;28;96570;-65
2023/06/26 01:26:15;;;;;;;;;10.00;8.50;;;;;21.31;96.33;98757.25;6043859;28;96520;-65
2023/06/26 01:29:19;;;;;;;;;11.40;9.00;;;;;21.31;96.70;98756.44;6060732;28;97051;-65
2023/06/26 01:32:24;;;;;;;;;12.25;11.00;;;;;21.31;96.36;98753.69;6063106;28;96863;-65
2023/06/26 01:35:30;;;;;;;;;11.40;9.40;;;;;21.17;96.97;98735.22;6068129;28;96584;-65
2023/06/26 01:38:34;;;;;;;;;11.00;9.80;;;;;21.26;96.75;98749.09;6068811;28;96247;-64
2023/06/26 01:41:39;;;;;;;;;11.67;11.00;;;;;21.18;98.50;98747.00;6068962;28;96484;-65
2023/06/26 01:44:47;;;;;;;;;10.00;10.00;;;;;21.19;98.27;98743.16;6067213;28;96890;-64
2023/06/26 01:47:53;;;;;;;;;13.00;12.00;;;;;21.24;97.64;98742.28;6067595;28;98043;-65
2023/06/26 01:50:59;;;;;;;;;11.00;10.00;;;;;21.25;97.65;98738.44;6067624;28;96651;-65
2023/06/26 01:54:04;;;;;;;;;13.00;11.75;;;;;21.20;97.47;98742.06;6066543;28;96864;-65
2023/06/26 01:57:10;;;;;;;;;12.00;10.00;;;;;21.20;97.82;98744.00;6068561;28;96989;-65
2023/06/26 02:00:17;;;;;;;;;10.60;10.00;;;;;21.18;98.20;98744.28;6067619;28;96262;-65
2023/06/26 02:03:24;;;;;;;;;12.00;10.00;;;;;21.11;98.67;98747.31;6067974;28;97181;-65
2023/06/26 02:06:27;;;;;;;;;12.80;11.80;;;;;21.08;98.62;98744.38;6066796;28;97077;-65
2023/06/26 02:09:31;;;;;;;;;11.00;11.00;;;;;21.06;98.84;98743.88;6066690;28;98405;-65
2023/06/26 02:12:37;;;;;;;;;9.00;9.00;;;;;21.04;99.54;98743.34;6068444;28;96364;-65
2023/06/26 02:15:41;;;;;;;;;10.00;8.00;;;;;21.01;99.58;98736.50;6062121;28;96597;-64
2023/06/26 02:18:44;;;;;;;;;12.00;9.25;;;;;20.98;99.64;98731.59;6043444;28;97601;-65
2023/06/26 02:21:48;;;;;;;;;10.00;9.75;;;;;21.01;98.59;98738.44;6043217;28;96833;-65
2023/06/26 02:24:51;;;;;;;;;9.00;8.00;;;;;20.86;99.37;98722.19;6043248;28;96428;-64
2023/06/26 02:27:56;;;;;;;;;11.80;9.00;;;;;20.89;99.66;98730.63;6043028;28;96982;-65
2023/06/26 02:31:00;;;;;;;;;9.00;9.00;;;;;20.91;99.47;98738.56;6058653;28;96256;-64
2023/06/26 02:34:04;;;;;;;;;9.60;9.60;;;;;20.90;99.44;98742.41;6043179;28;96424;-65
2023/06/26 02:37:10;;;;;;;;;11.60;10.00;;;;;20.90;99.17;98740.50;6044691;28;96376;-65
2023/06/26 02:40:14;;;;;;;;;9.80;9.00;;;;;20.82;99.37;98737.59;6042771;28;97256;-65
2023/06/26 02:43:19;;;;;;;;;9.60;9.40;;;;;20.87;98.86;98740.22;6042864;28;96538;-65
2023/06/26 02:46:23;;;;;;;;;11.00;9.00;;;;;20.87;99.19;98742.97;6045308;28;96404;-65
2023/06/26 02:49:26;;;;;;;;;8.00;7.00;;;;;20.90;99.57;98750.63;6042451;28;96382;-65
2023/06/26 02:52:30;;;;;;;;;10.00;9.00;;;;;20.84;100.00;98744.38;6044390;28;96453;-65
2023/06/26 02:55:35;;;;;;;;;12.00;11.00;;;;;20.82;100.00;98740.31;6065481;28;96245;-65
2023/06/26 02:58:41;;;;;;;;;10.60;9.20;;;;;20.63;100.00;98723.81;6066105;28;96573;-65
2023/06/26 03:01:44;;;;;;;;;12.40;11.40;;;;;20.74;100.00;98747.25;6055960;28;96347;-65
2023/06/26 03:04:49;;;;;;;;;12.00;12.00;;;;;20.81;100.00;98755.13;6068417;28;96983;-65
2023/06/26 03:07:53;;;;;;;;;12.00;10.00;;;;;20.79;100.00;98741.72;6051568;28;98632;-65
2023/06/26 03:10:56;;;;;;;;;10.00;9.50;;;;;20.81;100.00;98744.97;6048158;28;96582;-65
2023/06/26 03:14:01;;;;;;;;;11.00;10.00;;;;;20.81;100.00;98746.91;6056916;28;97556;-65
2023/06/26 03:17:07;;;;;;;;;11.67;11.00;;;;;20.79;100.00;98747.19;6066139;28;96473;-65
2023/06/26 03:20:12;;;;;;;;;13.00;11.60;;;;;20.81;100.00;98744.97;6065575;28;97344;-65
2023/06/26 03:23:34;;;;;;;;;12.20;10.20;;;;;20.69;100.00;98737.16;6064740;28;97142;-65
2023/06/26 03:26:37;;;;;;;;;10.00;10.00;;;;;20.84;100.00;98751.78;6065216;28;96255;-65
2023/06/26 03:29:42;;;;;;;;;12.00;11.00;;;;;20.33;100.00;98667.44;6051974;28;96557;-65
2023/06/26 03:32:46;;;;;;;;;11.60;11.00;;;;;20.89;100.00;98749.81;6065264;28;96430;-65
2023/06/26 03:35:50;;;;;;;;;12.00;10.40;;;;;20.91;100.00;98744.88;6049124;28;96761;-65
2023/06/26 03:38:56;;;;;;;;;8.00;8.00;;;;;20.95;100.00;98745.09;6064723;28;97604;-65
2023/06/26 03:42:01;;;;;;;;;11.00;9.00;;;;;20.95;100.00;98750.56;6063256;28;96752;-65
2023/06/26 03:45:06;;;;;;;;;11.00;10.00;;;;;20.97;99.73;98759.31;6048332;28;99084;-65
2023/06/26 03:48:11;;;;;;;;;10.40;10.00;;;;;20.92;100.00;98765.66;6048081;28;96583;-65
2023/06/26 03:51:14;;;;;;;;;12.40;11.40;;;;;20.97;100.00;98759.31;6070709;28;97214;-65
2023/06/26 03:54:17;;;;;;;;;14.00;12.00;;;;;20.97;100.00;98756.56;6063845;28;96498;-65
2023/06/26 03:57:21;;;;;;;;;11.00;10.00;;;;;20.94;100.00;98755.22;6049067;28;96308;-65
2023/06/26 04:00:25;;;;;;;;;13.00;9.00;;;;;21.02;100.00;98760.06;6064408;28;96450;-64
2023/06/26 04:03:30;;;;;;;;;13.00;10.60;;;;;21.01;99.56;98765.84;6105596;28;96373;-65
2023/06/26 04:06:34;;;;;;;;;12.00;10.00;;;;;20.94;99.49;98752.50;6079768;28;96709;-64
2023/06/26 04:09:37;;;;;;;;;11.00;10.80;;;;;20.99;99.79;98766.13;6080097;28;98635;-65
2023/06/26 04:12:42;;;;;;;;;9.20;8.60;;;;;20.93;99.74;98766.47;6094497;28;98410;-65
2023/06/26 04:15:47;;;;;;;;;11.00;9.20;;;;;20.97;99.90;98768.34;6091051;28;96808;-64
2023/06/26 04:18:50;;;;;;;;;9.00;9.00;;;;;20.99;99.74;98774.34;6092500;28;96512;-65
2023/06/26 04:21:54;;;;;;;;;10.00;9.80;;;;;21.00;100.00;98770.50;6093640;28;96369;-65
2023/06/26 04:24:57;;;;;;;;;12.00;11.25;;;;;21.00;99.88;98769.69;6059926;28;96695;-65
2023/06/26 04:28:01;;;;;;;;;11.60;10.60;;;;;20.98;100.00;98769.16;6093597;28;96401;-65
2023/06/26 04:31:05;;;;;;;;;10.00;9.50;;;;;21.01;100.00;98765.84;6093753;28;96320;-65
2023/06/26 04:34:09;;;;;;;;;10.40;10.00;;;;;21.02;100.00;98762.78;6087445;28;98888;-65
2023/06/26 04:37:16;;;;;;;;;10.40;9.40;;;;;21.09;100.00;98768.75;6117367;28;96396;-65
2023/06/26 04:40:19;;;;;;;;;9.20;8.60;;;;;21.12;100.00;98765.41;6116699;28;96429;-65
2023/06/26 04:43:23;;;;;;;;;12.00;10.60;;;;;21.18;100.00;98764.28;6116476;28;96895;-65
2023/06/26 04:46:28;;;;;;;;;9.00;8.00;;;;;21.22;100.00;98764.50;6105268;28;96502;-65
2023/06/26 04:49:32;;;;;;;;;10.60;9.00;;;;;21.33;100.00;98760.53;6093394;28;97762;-65
2023/06/26 04:52:35;;;;;;;;;9.75;9.00;;;;;21.39;100.00;98764.84;6090845;28;96132;-65
2023/06/26 04:55:38;;;;;;;;;8.75;8.75;;;;;21.46;99.99;98759.78;6090784;28;96907;-65
2023/06/26 04:58:42;;;;;;;;;12.40;12.00;;;;;21.53;100.00;98764.91;6075278;28;96819;-65
2023/06/26 05:01:47;;;;;;;;;10.00;9.50;;;;;21.58;100.00;98765.66;6059708;28;96828;-64
2023/06/26 05:04:51;;;;;;;;;11.80;10.00;;;;;21.70;99.73;98767.16;6075989;28;96932;-65
2023/06/26 05:07:55;;;;;;;;;10.00;9.20;;;;;21.78;99.57;98767.28;6075637;28;96687;-65
2023/06/26 05:10:59;;;;;;;;;11.00;10.00;;;;;21.94;99.00;98768.69;6092052;28;96842;-65
2023/06/26 05:14:02;;;;;;;;;12.60;10.60;;;;;22.06;97.88;98767.44;6090042;28;96324;-64
2023/06/26 05:17:07;;;;;;;;;10.00;9.00;;;;;22.08;98.16;98766.03;6089965;28;96265;-65
2023/06/26 05:20:11;;;;;;;;;11.00;10.00;;;;;22.25;96.61;98765.47;6072624;28;96699;-65
2023/06/26 05:23:17;;;;;;;;;10.25;10.00;;;;;22.28;96.75;98770.38;6072383;28;96633;-64
2023/06/26 05:26:20;;;;;;;;;11.00;10.40;;;;;22.43;95.86;98773.66;6071881;28;96701;-65
2023/06/26 05:29:24;;;;;;;;;9.00;8.00;;;;;22.58;95.15;98769.81;6091959;28;96428;-65
2023/06/26 05:32:31;;;;;;;;;12.67;10.00;;;;;22.68;94.42;98775.13;6075268;28;96440;-65
2023/06/26 05:35:37;;;;;;;;;12.60;11.00;;;;;22.85;93.92;98766.31;6075067;28;98423;-65
2023/06/26 05:38:41;;;;;;;;;13.67;12.00;;;;;22.95;92.12;98771.63;6092442;28;96363;-65
2023/06/26 05:41:45;;;;;;;;;13.40;12.00;;;;;23.07;89.60;98791.16;6074928;28;98908;-65
2023/06/26 05:44:48;;;;;;;;;13.00;10.00;;;;;22.97;87.01;98757.56;6074550;28;98558;-65
2023/06/26 05:47:53;;;;;;;;;10.50;10.25;;;;;22.97;86.60;98769.38;6092200;28;96293;-65
2023/06/26 05:50:57;;;;;;;;;10.00;9.00;;;;;23.08;86.81;98770.78;6092538;28;96313;-65
2023/06/26 05:54:01;;;;;;;;;11.00;10.00;;;;;23.19;86.40;98769.47;6091361;28;96321;-65
2023/06/26 05:57:05;;;;;;;;;11.00;9.00;;;;;23.45;84.40;98779.97;6091931;28;96520;-65
2023/06/26 06:00:11;;;;;;;;;13.00;10.80;;;;;23.64;84.15;98775.13;6074495;28;96900;-65
2023/06/26 06:03:19;;;;;;;;;10.00;8.00;;;;;23.62;82.19;98769.13;6092166;28;96316;-65
2023/06/26 06:06:22;;;;;;;;;14.00;11.00;;;;;23.69;80.72;98772.28;6091579;28;97593;-65
2023/06/26 06:09:26;;;;;;;;;12.00;11.00;;;;;23.74;79.77;98781.22;6074346;28;97003;-65
2023/06/26 06:12:29;;;;;;;;;10.00;9.00;;;;;23.82;79.70;98774.16;6091741;28;96859;-65
2023/06/26 06:15:32;;;;;;;;;10.20;10.00;;;;;23.92;78.81;98765.66;6074551;28;96912;-64
2023/06/26 06:18:37;;;;;;;;;14.00;11.00;;;;;23.98;78.68;98772.69;6091337;28;96279;-65
2023/06/26 06:21:40;;;;;;;;;10.20;10.20;;;;;24.01;79.11;98776.75;6091517;28;96293;-65
2023/06/26 06:24:45;;;;;;;;;12.00;10.40;;;;;24.15;79.49;98764.53;6087673;28;96726;-65
2023/06/26 06:27:48;;;;;;;;;11.00;9.00;;;;;24.43;79.40;98775.47;6089403;28;98753;-65
2023/06/26 06:30:51;;;;;;;;;11.20;11.00;;;;;24.57;74.98;98763.22;6091375;28;96425;-65
2023/06/26 06:33:56;;;;;;;;;10.00;9.00;;;;;24.67;71.49;98770.41;6073484;28;97245;-65
2023/06/26 06:37:00;;;;;;;;;10.20;9.80;;;;;24.83;69.75;98766.09;6074183;28;99603;-65
2023/06/26 06:40:05;;;;;;;;;12.00;12.00;;;;;25.03;71.61;98778.53;6073121;28;96844;-65
2023/06/26 06:43:09;;;;;;;;;9.00;9.00;;;;;25.18;72.43;98766.25;6090189;28;96271;-65
2023/06/26 06:46:12;;;;;;;;;8.25;8.25;;;;;25.36;70.53;98773.44;6091051;28;96296;-65
2023/06/26 06:49:17;;;;;;;;;10.20;10.00;;;;;25.42;68.85;98767.44;6090924;28;96347;-65
2023/06/26 06:52:20;;;;;;;;;9.00;9.00;;;;;25.57;68.68;98770.91;6071553;28;96671;-65
2023/06/26 06:55:25;;;;;;;;;11.25;8.75;;;;;25.73;65.95;98775.66;6090425;28;96283;-65
2023/06/26 06:58:28;;;;;;;;;9.60;9.00;;;;;25.71;64.40;98775.16;6090044;28;97037;-65
2023/06/26 07:01:31;;;;;;;;;10.50;9.00;;;;;25.80;65.09;98773.19;6090549;28;96859;-65
2023/06/26 07:04:36;;;;;;;;;11.40;9.00;;;;;25.99;64.76;98769.31;6089651;28;96559;-65
2023/06/26 07:07:40;;;;;;;;;11.00;10.00;;;;;26.00;62.18;98765.44;6090550;28;96257;-65
2023/06/26 07:10:43;;;;;;;;;11.20;10.00;;;;;26.19;64.43;98772.22;6085272;28;96579;-65
2023/06/26 07:13:48;;;;;;;;;9.60;9.00;;;;;26.34;62.18;98770.13;6070078;28;97247;-65
2023/06/26 07:16:51;;;;;;;;;10.00;10.00;;;;;26.48;61.02;98770.75;6087893;28;96327;-65
2023/06/26 07:19:56;;;;;;;;;8.80;7.80;;;;;26.50;58.57;98769.25;6087444;28;97040;-65
2023/06/26 07:22:59;;;;;;;;;10.20;9.00;;;;;26.59;58.16;98772.81;6087234;28;96478;-64
2023/06/26 07:26:02;;;;;;;;;11.00;9.25;;;;;26.65;57.49;98771.50;6072924;28;98936;-66
2023/06/26 07:29:06;;;;;;;;;7.50;6.50;;;;;26.86;59.35;98770.78;6090881;28;96323;-65
2023/06/26 07:32:10;;;;;;;;;7.75;7.00;;;;;27.20;57.54;98772.63;6090802;28;96332;-65
2023/06/26 07:35:18;;;;;;;;;8.40;8.40;;;;;27.40;52.99;98769.09;6089150;28;99640;-65
2023/06/26 07:38:21;;;;;;;;;8.00;7.00;;;;;27.65;54.45;98762.59;6073150;28;96304;-65
2023/06/26 07:41:25;;;;;;;;;8.00;8.00;;;;;27.84;52.92;98771.25;6072883;28;96750;-65
2023/06/26 07:44:28;;;;;;;;;8.00;7.40;;;;;28.16;50.95;98766.09;6090557;28;96305;-66
2023/06/26 07:47:32;;;;;;;;;9.67;8.67;;;;;28.39;51.00;98768.16;6073302;28;96700;-65
2023/06/26 07:50:36;;;;;;;;;10.00;8.80;;;;;28.68;49.80;98763.63;6089099;28;96442;-66
2023/06/26 07:53:40;;;;;;;;;9.00;7.50;;;;;28.93;49.76;98770.06;6072042;28;98439;-65
2023/06/26 07:56:55;;;;;;;;;8.00;8.00;;;;;29.28;48.70;98765.66;6090136;28;96353;-65
2023/06/26 07:59:58;;;;;;;;;8.00;7.00;;;;;29.40;45.04;98765.69;6090186;28;96356;-66
2023/06/26 08:03:02;;;;;;;;;6.00;5.00;;;;;29.65;45.24;98766.47;6057014;28;96722;-66
2023/06/26 08:06:07;;;;;;;;;11.40;10.40;;;;;29.87;44.50;98768.72;6089853;28;96423;-66
2023/06/26 08:09:13;;;;;;;;;7.00;7.00;;;;;30.14;41.06;98767.16;6089058;28;96444;-66
2023/06/26 08:12:17;;;;;;;;;8.00;7.00;;;;;30.25;38.92;98759.13;6072503;28;99293;-66
2023/06/26 08:15:20;;;;;;;;;6.80;5.80;;;;;30.49;37.66;98756.25;6089912;28;97343;-66
2023/06/26 08:18:23;;;;;;;;;9.00;7.60;;;;;30.61;36.86;98761.72;6089822;28;96545;-66
2023/06/26 08:21:29;;;;;;;;;6.00;6.00;;;;;30.79;34.88;98757.44;6090144;28;96418;-65
2023/06/26 08:24:32;;;;;;;;;5.00;4.60;;;;;30.96;36.16;98756.28;6089617;28;97240;-66
2023/06/26 08:27:35;;;;;;;;;8.00;6.40;;;;;31.18;37.10;98752.09;6072223;28;96738;-65
2023/06/26 08:30:39;;;;;;;;;6.00;5.00;;;;;31.31;34.57;98751.63;6089680;28;96395;-65
2023/06/26 08:33:43;;;;;;;;;5.50;4.50;;;;;31.20;33.77;98760.88;6089518;28;96377;-66
2023/06/26 08:36:48;;;;;;;;;7.60;6.00;;;;;31.30;32.39;98746.41;6088503;28;97199;-65
2023/06/26 08:39:51;;;;;;;;;7.00;6.00;;;;;31.58;34.44;98752.66;6088080;28;96386;-66
2023/06/26 08:42:55;;;;;;;;;5.75;5.00;;;;;31.74;32.08;98752.63;6089617;28;96324;-66
2023/06/26 08:45:59;;;;;;;;;7.00;6.00;;;;;31.70;32.38;98748.94;6071542;28;98393;-66
2023/06/26 08:49:09;;;;;;;;;6.00;5.00;;;;;31.87;32.59;98745.72;6071791;28;96887;-66
2023/06/26 08:52:20;;;;;;;;;5.00;5.00;;;;;31.87;30.59;98747.69;6088196;28;96585;-66
2023/06/26 08:55:27;;;;;;;;;7.00;7.00;;;;;32.01;29.94;98753.59;6087472;28;97018;-65
2023/06/26 08:58:31;;;;;;;;;7.40;6.40;;;;;32.02;30.09;98742.06;6071077;28;96372;-66
2023/06/26 09:01:35;;;;;;;;;5.00;5.00;;;;;32.16;31.13;98736.78;6089598;28;96448;-65
2023/06/26 09:04:40;;;;;;;;;6.75;6.50;;;;;32.55;30.77;98731.16;6072839;28;96355;-66
2023/06/26 09:07:45;;;;;;;;;6.00;5.00;;;;;32.99;30.48;98728.75;6057577;28;97262;-66
2023/06/26 09:10:48;;;;;;;;;4.60;4.60;;;;;33.21;29.05;98730.75;6078631;28;96362;-66
2023/06/26 09:13:53;;;;;;;;;4.40;4.40;;;;;33.14;27.22;98738.19;6076530;28;96277;-66
2023/06/26 09:16:56;;;;;;;;;7.00;7.00;;;;;32.87;26.93;98729.78;6076364;28;97662;-66
2023/06/26 09:20:00;;;;;;;;;6.40;6.00;;;;;32.85;27.47;98734.09;6085260;28;96518;-65
2023/06/26 09:23:05;;;;;;;;;7.75;7.00;;;;;32.77;28.35;98730.41;6091695;28;96476;-66
2023/06/26 09:26:08;;;;;;;;;7.00;6.00;;;;;32.70;28.18;98732.25;6092981;28;96431;-66
2023/06/26 09:29:12;;;;;;;;;5.00;4.00;;;;;32.74;27.10;98728.38;6075544;28;97123;-66
2023/06/26 09:32:15;;;;;;;;;6.00;5.00;;;;;32.64;27.66;98727.00;6092674;28;96269;-65
2023/06/26 09:35:19;;;;;;;;;6.00;5.00;;;;;32.94;29.08;98729.09;6075797;28;96333;-66
2023/06/26 09:38:24;;;;;;;;;5.40;5.00;;;;;33.10;28.10;98724.97;6092705;28;96622;-66
2023/06/26 09:41:28;;;;;;;;;6.20;6.00;;;;;33.28;27.38;98716.88;6075225;28;96810;-65
2023/06/26 09:44:32;;;;;;;;;5.00;4.00;;;;;33.43;28.03;98707.53;6074935;28;97271;-66
2023/06/26 09:47:36;;;;;;;;;7.80;6.00;;;;;33.77;27.70;98719.59;6091545;28;96259;-66
2023/06/26 09:50:43;;;;;;;;;6.00;6.00;;;;;33.87;27.10;98712.53;6092311;28;97684;-65
2023/06/26 09:54:09;;;;;;;;;6.00;6.00;;;;;34.19;28.17;98718.56;6073901;28;98500;-65
2023/06/26 09:57:13;;;;;;;;;8.40;6.60;;;;;34.50;26.32;98717.31;6091589;28;96428;-66
2023/06/26 10:00:17;;;;;;;;;8.00;6.00;;;;;34.60;24.82;98699.81;6074922;28;96452;-65
2023/06/26 10:03:21;;;;;;;;;4.25;4.00;;;;;34.53;25.11;98722.94;6092079;28;96426;-65
2023/06/26 10:06:29;;;;;;;;;6.00;5.00;;;;;34.71;25.34;98712.72;6074613;28;97268;-66
2023/06/26 10:09:36;;;;;;;;;5.00;4.75;;;;;34.98;25.98;98706.97;6092418;28;96303;-66
2023/06/26 10:12:40;;;;;;;;;4.60;4.00;;;;;35.16;25.12;98705.09;6074153;28;96908;-66
2023/06/26 10:15:46;;;;;;;;;5.20;5.20;;;;;35.28;25.91;98706.81;6091798;28;96362;-65
2023/06/26 10:18:54;;;;;;;;;5.40;5.00;;;;;35.42;25.61;98696.50;6074932;28;96468;-66
2023/06/26 10:21:59;;;;;;;;;6.00;5.00;;;;;35.56;26.78;98698.56;6091790;28;96935;-66
2023/06/26 10:25:08;;;;;;;;;5.00;4.50;;;;;35.38;25.76;98701.28;6092188;28;96301;-66
2023/06/26 10:28:13;;;;;;;;;8.00;7.40;;;;;34.89;26.25;98687.69;6074374;28;97007;-66
2023/06/26 10:31:17;;;;;;;;;6.40;5.60;;;;;34.41;26.78;98681.22;6092281;28;96838;-66
2023/06/26 10:34:21;;;;;;;;;6.00;6.00;;;;;34.11;27.55;98678.47;6091466;28;97220;-66
2023/06/26 10:37:42;;;;;;;;;7.00;6.00;;;;;33.88;28.13;98680.59;6090219;28;99269;-66
2023/06/26 10:40:49;;;;;;;;;7.60;7.60;;;;;33.61;27.84;98677.03;6090284;28;96585;-66
2023/06/26 10:44:08;;;;;;;;;7.80;6.00;;;;;33.30;28.09;98678.22;6090177;28;96910;-66
2023/06/26 10:47:12;;;;;;;;;8.40;7.40;;;;;33.26;28.40;98670.97;6074851;28;96309;-66
2023/06/26 10:50:21;;;;;;;;;6.00;6.00;;;;;33.45;29.13;98680.03;6073895;28;96862;-66
2023/06/26 10:53:34;;;;;;;;;9.00;8.00;;;;;33.62;27.35;98672.25;6071715;28;96687;-66
2023/06/26 10:56:49;;;;;;;;;7.60;6.60;;;;;33.79;28.23;98666.09;6088473;28;96927;-65
2023/06/26 11:00:13;;;;;;;;;8.40;8.00;;;;;33.72;26.33;98672.41;6090744;28;96502;-66
2023/06/26 11:03:26;;;;;;;;;8.00;8.00;;;;;33.43;26.71;98662.00;6091103;28;96416;-66
2023/06/26 11:06:31;;;;;;;;;7.00;7.00;;;;;33.45;28.91;98662.44;6073691;28;98426;-66
2023/06/26 11:09:55;;;;;;;;;7.60;7.00;;;;;33.48;28.45;98665.28;6072593;28;96576;-65
2023/06/26 11:13:02;;;;;;;;;7.40;7.40;;;;;33.37;28.04;98664.34;6086810;28;96302;-65
2023/06/26 11:16:06;;;;;;;;;8.00;6.40;;;;;33.20;28.53;98652.91;6067872;28;98365;-65
2023/06/26 11:19:10;;;;;;;;;9.00;8.00;;;;;33.04;28.10;98664.19;6113336;28;96970;-65
2023/06/26 11:22:16;;;;;;;;;8.00;7.50;;;;;32.74;27.67;98646.59;6094923;28;96674;-65
2023/06/26 11:25:21;;;;;;;;;7.00;7.00;;;;;32.72;28.44;98662.91;6091918;28;97153;-65
2023/06/26 11:28:27;;;;;;;;;8.25;7.00;;;;;32.84;28.55;98663.50;6089176;28;96304;-65
2023/06/26 11:31:32;;;;;;;;;6.00;6.00;;;;;33.17;27.94;98660.06;6073251;28;98668;-65
2023/06/26 11:34:37;;;;;;;;;5.80;5.40;;;;;33.51;27.48;98667.34;6072771;28;97567;-65
2023/06/26 11:37:40;;;;;;;;;8.00;7.00;;;;;33.41;27.55;98658.81;6090295;28;97047;-65
2023/06/26 11:40:44;;;;;;;;;8.00;8.00;;;;;33.12;27.84;98656.75;6090464;28;96387;-65
2023/06/26 11:43:49;;;;;;;;;8.00;8.00;;;;;33.12;28.27;98656.75;6081782;28;96237;-66
2023/06/26 11:46:55;;;;;;;;;8.00;7.00;;;;;33.34;28.02;98653.91;6064962;28;96726;-65
2023/06/26 11:49:59;;;;;;;;;6.20;6.20;;;;;33.35;28.12;98647.16;6064886;28;96573;-65
2023/06/26 11:53:05;;;;;;;;;8.60;6.60;;;;;33.45;27.45;98663.25;6048236;28;97022;-65
2023/06/26 11:56:10;;;;;;;;;8.00;7.25;;;;;33.35;27.25;98647.16;6066448;28;96526;-66
2023/06/26 11:59:14;;;;;;;;;7.00;7.00;;;;;33.48;25.46;98640.13;6066802;28;96344;-65
2023/06/26 12:02:18;;;;;;;;;7.20;7.00;;;;;33.66;26.79;98647.94;6066182;28;96760;-66
2023/06/26 12:05:22;;;;;;;;;7.00;7.00;;;;;34.18;27.47;98649.78;6049300;28;96241;-65
2023/06/26 12:08:26;;;;;;;;;8.00;7.40;;;;;34.60;26.30;98632.63;6066187;28;96507;-66
2023/06/26 12:11:31;;;;;;;;;8.00;7.00;;;;;34.97;24.80;98627.72;6064888;28;97047;-66
2023/06/26 12:14:36;;;;;;;;;6.00;6.00;;;;;35.13;24.70;98624.63;6049100;28;98622;-65
2023/06/26 12:17:40;;;;;;;;;8.00;6.00;;;;;35.09;24.53;98635.78;6048782;28;97073;-65
2023/06/26 12:20:43;;;;;;;;;6.00;6.00;;;;;35.01;24.26;98630.53;6049107;28;96374;-65
2023/06/26 12:23:47;;;;;;;;;7.33;6.00;;;;;35.03;24.13;98622.56;6065790;28;97095;-66
2023/06/26 12:26:53;;;;;;;;;6.75;5.75;;;;;35.27;24.99;98624.72;6048934;28;97548;-65
2023/06/26 12:29:58;;;;;;;;;5.00;5.00;;;;;35.19;24.10;98623.88;6065208;28;96601;-66
2023/06/26 12:33:02;;;;;;;;;6.00;6.00;;;;;35.15;24.79;98623.03;6065908;28;96323;-66
2023/06/26 12:36:06;;;;;;;;;8.00;7.60;;;;;34.66;24.88;98622.63;6048902;28;98881;-66
2023/06/26 12:39:12;;;;;;;;;7.50;7.25;;;;;34.40;25.61;98620.84;6053095;28;96998;-65
2023/06/26 12:42:16;;;;;;;;;10.00;9.00;;;;;34.58;25.84;98618.19;6053683;28;96724;-66
2023/06/26 12:45:21;;;;;;;;;10.00;10.00;;;;;34.78;25.41;98620.38;6069986;28;96381;-66
2023/06/26 12:48:43;;;;;;;;;7.80;7.80;;;;;35.02;25.14;98601.31;6053078;28;96368;-65
2023/06/26 12:51:47;;;;;;;;;8.00;8.00;;;;;35.16;24.74;98609.81;6051423;28;96679;-65
2023/06/26 12:54:53;;;;;;;;;8.20;8.00;;;;;35.35;23.57;98603.94;6068952;28;96635;-66
2023/06/26 12:57:57;;;;;;;;;8.00;8.00;;;;;35.56;24.29;98595.63;6054230;28;98457;-66
2023/06/26 13:01:04;;;;;;;;;8.00;7.00;;;;;35.84;24.59;98603.34;6069153;28;96344;-65
2023/06/26 13:04:08;;;;;;;;;10.60;8.00;;;;;35.95;24.06;98592.97;6069834;28;96981;-66
2023/06/26 13:07:11;;;;;;;;;8.00;7.25;;;;;35.88;23.12;98594.94;6069892;28;96231;-66
2023/06/26 13:10:15;;;;;;;;;8.00;8.00;;;;;35.66;23.69;98594.09;6069286;28;96373;-66
2023/06/26 13:13:18;;;;;;;;;10.00;8.00;;;;;35.70;24.14;98586.50;6067785;28;96604;-66
2023/06/26 13:16:23;;;;;;;;;7.60;7.60;;;;;35.82;24.16;98582.53;6060596;28;98606;-65
2023/06/26 13:19:27;;;;;;;;;8.00;7.00;;;;;36.04;23.95;98584.97;6087599;28;97283;-66
2023/06/26 13:22:30;;;;;;;;;8.00;7.75;;;;;35.77;22.95;98575.31;6096455;28;96238;-66
2023/06/26 13:25:34;;;;;;;;;8.80;8.40;;;;;35.56;23.39;98576.00;6053280;28;98440;-64
2023/06/26 13:28:38;;;;;;;;;8.60;8.60;;;;;35.32;23.92;98579.50;6060094;28;97270;-66
2023/06/26 13:31:42;;;;;;;;;10.50;9.00;;;;;35.23;23.27;98581.88;6078850;28;96547;-65
2023/06/26 13:34:46;;;;;;;;;10.60;9.00;;;;;34.89;23.83;98572.84;6063721;28;96754;-66
2023/06/26 13:37:49;;;;;;;;;10.20;9.20;;;;;34.68;25.20;98567.91;6079239;28;96397;-65
2023/06/26 13:40:53;;;;;;;;;8.80;8.80;;;;;34.77;23.94;98562.75;6069227;28;96661;-63
2023/06/26 13:43:57;;;;;;;;;10.60;9.60;;;;;34.63;23.72;98545.84;6060442;28;96946;-63
2023/06/26 13:47:17;;;;;;;;;9.00;8.20;;;;;34.67;24.88;98559.84;6061423;28;96841;-66
2023/06/26 13:50:20;;;;;;;;;10.00;10.00;;;;;34.74;24.80;98549.56;6069939;28;98414;-66
2023/06/26 13:53:23;;;;;;;;;10.20;8.20;;;;;34.59;24.28;98550.63;6053649;28;97016;-65
2023/06/26 13:56:30;;;;;;;;;10.00;10.00;;;;;34.36;24.14;98550.00;6052122;28;98610;-66
2023/06/26 13:59:34;;;;;;;;;9.00;8.25;;;;;34.18;23.86;98547.06;6056666;28;96667;-65
2023/06/26 14:02:39;;;;;;;;;8.00;8.00;;;;;34.09;23.05;98540.97;6054943;28;96657;-65
2023/06/26 14:05:43;;;;;;;;;10.40;9.40;;;;;34.04;23.79;98535.72;6053062;28;97641;-65
2023/06/26 14:08:46;;;;;;;;;8.60;7.60;;;;;34.20;24.60;98533.50;6057665;28;96695;-66
2023/06/26 14:11:52;;;;;;;;;9.00;8.00;;;;;34.40;24.46;98533.28;6054647;28;96296;-65
2023/06/26 14:14:55;;;;;;;;;9.00;8.75;;;;;34.27;23.36;98533.56;6055161;28;96614;-65
2023/06/26 14:18:02;;;;;;;;;9.40;9.00;;;;;34.20;24.46;98527.91;6052127;28;98804;-66
2023/06/26 14:21:06;;;;;;;;;9.20;8.20;;;;;34.07;24.26;98526.56;6052856;28;97231;-65
2023/06/26 14:24:10;;;;;;;;;11.33;11.00;;;;;33.81;23.89;98507.97;6048446;28;96702;-66